Calvert, Alabama
Current Conditions -  °F | °C
As of 6:56 AM on Thursday 23 Oct 2014 (Local Time) from KMOB Reporting Station
Few Clouds Few Clouds  
Wind Chill: 44°   Ceiling: Unl
Heat Index: 48°   Visibility: 10mi
Dew Point: 44°   Wind: 8mph
Humidity: 86%   Direction: 40°NE
Pressure: 30.09"   Gusts: NA
Location:  31.15°N, 88.01°W
Report Text: KMOB 231156Z 04007KT 10SM FEW060 09/07 A3009 RMK AO2 SLP187 T00890067 10117 20089 53004
Loading
Personal Weather Stations






























Interactive Weather Map
Tropical Storm Tracking
New forecast layout! Learn more

10-Day Weather Forecast

Advertisements
Track Severe Weather on mobile